createdAt,value
2022-09-03T00:00:54.461Z,4.17
2022-09-03T00:01:54.182Z,4.57
2022-09-03T00:02:54.169Z,4.77
2022-09-03T00:03:54.110Z,3.78
2022-09-03T00:04:54.169Z,3.38
2022-09-03T00:05:54.135Z,4.17
2022-09-03T00:06:54.092Z,4.57
2022-09-03T00:07:54.083Z,4.37
2022-09-03T00:08:54.047Z,4.97
2022-09-03T00:09:54.051Z,4.17
2022-09-03T00:10:54.069Z,3.38
2022-09-03T00:11:54.069Z,3.38
2022-09-03T00:12:54.018Z,3.98
2022-09-03T00:13:54.032Z,4.97
2022-09-03T00:14:54.020Z,3.98
2022-09-03T00:15:54.116Z,4.77
2022-09-03T00:16:53.996Z,4.77
2022-09-03T00:17:53.970Z,4.97
2022-09-03T00:18:53.972Z,3.58
2022-09-03T00:19:54.380Z,3.98
2022-09-03T00:20:53.960Z,4.57
2022-09-03T00:21:53.951Z,5.17
2022-09-03T00:22:53.945Z,4.37
2022-09-03T00:23:53.943Z,4.37
2022-09-03T00:24:53.953Z,4.17
2022-09-03T00:25:53.991Z,4.77
2022-09-03T00:26:53.890Z,4.17
2022-09-03T00:27:53.881Z,4.77
2022-09-03T00:28:53.861Z,4.57
2022-09-03T00:29:53.851Z,5.17
2022-09-03T00:30:53.927Z,4.57
2022-09-03T00:31:53.851Z,4.37
2022-09-03T00:32:53.861Z,1.79
2022-09-03T00:33:53.851Z,5.37
2022-09-03T00:34:53.816Z,4.77
2022-09-03T00:35:53.836Z,4.17
2022-09-03T00:36:53.762Z,4.97
2022-09-03T00:37:53.791Z,4.77
2022-09-03T00:38:53.751Z,4.77
2022-09-03T00:39:53.817Z,4.57
2022-09-03T00:40:53.791Z,5.17
2022-09-03T00:41:53.746Z,5.37
2022-09-03T00:42:53.741Z,4.37
2022-09-03T00:43:53.694Z,5.96
2022-09-03T00:44:53.685Z,4.97
2022-09-03T00:45:53.924Z,4.57
2022-09-03T00:46:53.682Z,5.57
2022-09-03T00:47:53.671Z,5.77
2022-09-03T00:48:53.631Z,6.16
2022-09-03T00:49:53.633Z,5.96
2022-09-03T00:50:53.613Z,5.37
2022-09-03T00:51:53.641Z,5.17
2022-09-03T00:52:53.632Z,4.57
2022-09-03T00:53:53.616Z,4.97
2022-09-03T00:54:53.587Z,4.17
2022-09-03T00:55:53.582Z,4.77
2022-09-03T00:56:53.551Z,4.57
2022-09-03T00:57:53.582Z,4.77
2022-09-03T00:58:53.500Z,3.18
2022-09-03T00:59:53.522Z,5.17
2022-09-03T01:00:53.499Z,5.17
2022-09-03T01:01:53.583Z,5.57
2022-09-03T01:02:53.502Z,5.96
2022-09-03T01:03:53.441Z,5.37
2022-09-03T01:04:53.422Z,5.17
2022-09-03T01:05:53.431Z,4.97
2022-09-03T01:06:53.483Z,3.98
2022-09-03T01:07:53.502Z,5.57
2022-09-03T01:08:53.474Z,5.57
2022-09-03T01:09:53.412Z,5.57
2022-09-03T01:10:53.427Z,4.77
2022-09-03T01:11:53.377Z,5.96
2022-09-03T01:12:53.353Z,4.97
2022-09-03T01:13:53.366Z,5.37
2022-09-03T01:14:53.375Z,5.17
2022-09-03T01:15:53.405Z,5.57
2022-09-03T01:16:53.360Z,5.17
2022-09-03T01:17:53.297Z,5.17
2022-09-03T01:18:53.298Z,4.97
2022-09-03T01:19:53.403Z,5.77
2022-09-03T01:20:53.292Z,5.57
2022-09-03T01:21:53.282Z,5.77
2022-09-03T01:22:53.276Z,5.96
2022-09-03T01:23:53.272Z,5.57
2022-09-03T01:24:53.222Z,5.17
2022-09-03T01:25:53.233Z,5.37
2022-09-03T01:26:53.271Z,5.96
2022-09-03T01:27:53.259Z,6.36
2022-09-03T01:28:53.225Z,5.37
2022-09-03T01:29:53.207Z,5.37
2022-09-03T01:30:53.200Z,5.57
2022-09-03T01:31:53.153Z,5.57
2022-09-03T01:32:53.160Z,5.17
2022-09-03T01:33:53.451Z,6.36
2022-09-03T01:34:53.131Z,5.17
2022-09-03T01:35:53.139Z,5.57
2022-09-03T01:36:53.131Z,5.77
2022-09-03T01:37:53.061Z,6.36
2022-09-03T01:38:53.051Z,5.37
2022-09-03T01:39:53.094Z,5.57
2022-09-03T01:40:53.094Z,6.16
2022-09-03T01:41:53.051Z,6.76
2022-09-03T01:42:53.063Z,5.77
2022-09-03T01:43:53.062Z,6.36
2022-09-03T01:44:53.133Z,6.76
2022-09-03T01:45:53.157Z,6.36
2022-09-03T01:46:53.031Z,6.56
2022-09-03T01:47:53.001Z,6.56
2022-09-03T01:48:52.991Z,6.56
2022-09-03T01:49:52.990Z,4.57
2022-09-03T01:50:52.961Z,5.96
2022-09-03T01:51:52.991Z,6.56
2022-09-03T01:52:52.991Z,6.96
2022-09-03T01:53:52.941Z,7.36
2022-09-03T01:54:52.953Z,5.96
2022-09-03T01:55:52.883Z,6.16
2022-09-03T01:56:52.891Z,6.76
2022-09-03T01:57:52.857Z,6.36
2022-09-03T01:58:53.531Z,6.96
2022-09-03T01:59:52.871Z,6.16
2022-09-03T02:00:52.855Z,5.17
2022-09-03T02:01:52.939Z,6.16
2022-09-03T02:02:53.044Z,6.36
2022-09-03T02:03:52.902Z,6.16
2022-09-03T02:04:52.909Z,5.57
2022-09-03T02:05:52.813Z,6.56
2022-09-03T02:06:52.843Z,6.56
2022-09-03T02:07:53.084Z,6.36
2022-09-03T02:08:52.963Z,5.96
2022-09-03T02:09:52.831Z,6.76
2022-09-03T02:10:52.917Z,6.36
2022-09-03T02:11:52.902Z,7.16
2022-09-03T02:12:52.893Z,6.56
2022-09-03T02:13:52.832Z,7.36
2022-09-03T02:14:52.826Z,7.16
2022-09-03T02:15:52.736Z,7.75
2022-09-03T02:16:53.181Z,9.15
2022-09-03T02:17:52.688Z,9.15
2022-09-03T02:18:52.716Z,9.74
2022-09-03T02:19:52.671Z,9.94
2022-09-03T02:20:52.736Z,7.75
2022-09-03T02:21:52.628Z,9.15
2022-09-03T02:22:52.641Z,8.75
2022-09-03T02:23:52.633Z,9.15
2022-09-03T02:24:52.609Z,8.55
2022-09-03T02:25:52.591Z,8.95
2022-09-03T02:26:52.603Z,10.34
2022-09-03T02:27:52.556Z,8.75
2022-09-03T02:28:52.610Z,8.95
2022-09-03T02:29:52.581Z,9.34
2022-09-03T02:30:52.538Z,8.95
2022-09-03T02:31:52.502Z,7.75
2022-09-03T02:32:52.684Z,8.15
2022-09-03T02:33:52.571Z,8.55
2022-09-03T02:34:52.526Z,8.55
2022-09-03T02:35:52.570Z,9.54
2022-09-03T02:36:52.483Z,8.55
2022-09-03T02:37:52.491Z,7.95
2022-09-03T02:38:52.434Z,8.55
2022-09-03T02:39:52.543Z,7.75
2022-09-03T02:40:52.444Z,7.55
2022-09-03T02:41:52.412Z,8.15
2022-09-03T02:42:52.414Z,7.75
2022-09-03T02:43:52.469Z,7.55
2022-09-03T02:44:52.363Z,7.95
2022-09-03T02:45:52.510Z,8.75
2022-09-03T02:46:52.370Z,7.55
2022-09-03T02:47:52.380Z,6.76
2022-09-03T02:48:52.351Z,7.16
2022-09-03T02:49:52.341Z,7.75
2022-09-03T02:50:52.342Z,7.95
2022-09-03T02:51:52.317Z,7.55
2022-09-03T02:52:52.304Z,7.55
2022-09-03T02:53:52.271Z,7.36
2022-09-03T02:54:52.262Z,7.75
2022-09-03T02:55:52.224Z,7.75
2022-09-03T02:56:52.211Z,8.15
2022-09-03T02:57:52.215Z,7.55
2022-09-03T02:58:52.211Z,7.36
2022-09-03T02:59:52.231Z,7.95
2022-09-03T03:00:52.270Z,7.36
2022-09-03T03:01:52.244Z,8.35
2022-09-03T03:02:52.210Z,8.35
2022-09-03T03:03:52.141Z,9.34
2022-09-03T03:04:52.152Z,8.75
2022-09-03T03:05:52.193Z,8.55
2022-09-03T03:06:52.118Z,10.54
2022-09-03T03:07:52.141Z,9.34
2022-09-03T03:08:52.122Z,11.13
2022-09-03T03:09:52.071Z,9.74
2022-09-03T03:10:52.070Z,7.95
2022-09-03T03:11:52.081Z,7.36
2022-09-03T03:12:52.088Z,7.36
2022-09-03T03:13:52.053Z,7.75
2022-09-03T03:14:52.031Z,7.16
2022-09-03T03:15:52.001Z,6.76
2022-09-03T03:16:52.039Z,7.55
2022-09-03T03:17:52.020Z,7.75
2022-09-03T03:18:52.001Z,7.16
2022-09-03T03:19:52.002Z,8.35
2022-09-03T03:20:51.971Z,7.36
2022-09-03T03:21:51.931Z,7.16
2022-09-03T03:22:51.941Z,7.95
2022-09-03T03:23:51.921Z,7.36
2022-09-03T03:24:51.891Z,7.75
2022-09-03T03:25:51.901Z,7.55
2022-09-03T03:26:51.891Z,7.36
2022-09-03T03:27:51.884Z,7.16
2022-09-03T03:28:51.864Z,7.36
2022-09-03T03:29:51.849Z,7.55
2022-09-03T03:30:51.901Z,7.16
2022-09-03T03:31:51.841Z,6.96
2022-09-03T03:32:51.882Z,7.95
2022-09-03T03:33:51.825Z,7.36
2022-09-03T03:34:51.790Z,7.16
2022-09-03T03:35:51.822Z,6.36
2022-09-03T03:36:51.803Z,7.55
2022-09-03T03:37:51.838Z,7.95
2022-09-03T03:38:51.791Z,7.75
2022-09-03T03:39:51.759Z,7.55
2022-09-03T03:40:51.732Z,7.75
2022-09-03T03:41:51.731Z,7.55
2022-09-03T03:42:51.745Z,7.75
2022-09-03T03:43:51.741Z,7.75
2022-09-03T03:44:51.700Z,7.95
2022-09-03T03:45:51.695Z,7.75
2022-09-03T03:46:51.670Z,7.36
2022-09-03T03:47:51.692Z,7.75
2022-09-03T03:48:51.661Z,8.15
2022-09-03T03:49:51.640Z,8.35
2022-09-03T03:50:51.651Z,8.55
2022-09-03T03:51:51.651Z,8.55
2022-09-03T03:52:51.658Z,8.35
2022-09-03T03:53:51.596Z,8.75
2022-09-03T03:54:51.632Z,8.35
2022-09-03T03:55:51.581Z,8.95
2022-09-03T03:56:55.423Z,8.55
2022-09-03T03:57:51.569Z,6.56
2022-09-03T03:58:51.541Z,7.55
2022-09-03T03:59:51.582Z,7.55
2022-09-03T04:00:51.620Z,7.16
2022-09-03T04:01:51.490Z,7.95
2022-09-03T04:02:51.559Z,9.15
2022-09-03T04:03:51.440Z,9.54
2022-09-03T04:04:51.439Z,8.75
2022-09-03T04:05:51.439Z,4.17
2022-09-03T04:06:51.433Z,8.95
2022-09-03T04:07:51.462Z,7.95
2022-09-03T04:08:51.449Z,7.36
2022-09-03T04:09:51.389Z,7.75
2022-09-03T04:10:51.430Z,7.36
2022-09-03T04:11:51.379Z,7.75
2022-09-03T04:12:51.439Z,7.55
2022-09-03T04:13:51.383Z,7.95
2022-09-03T04:14:51.374Z,7.55
2022-09-03T04:15:51.350Z,7.55
2022-09-03T04:16:51.430Z,7.36
2022-09-03T04:17:51.301Z,6.96
2022-09-03T04:18:51.374Z,7.55
2022-09-03T04:19:51.289Z,7.16
2022-09-03T04:20:51.368Z,7.95
2022-09-03T04:21:51.290Z,6.96
2022-09-03T04:22:52.035Z,7.16
2022-09-03T04:23:51.259Z,6.16
2022-09-03T04:24:51.260Z,7.36
2022-09-03T04:25:51.330Z,6.76
2022-09-03T04:26:51.250Z,7.95
2022-09-03T04:27:51.241Z,6.96
2022-09-03T04:28:51.210Z,7.16
2022-09-03T04:29:51.210Z,5.96
2022-09-03T04:30:51.429Z,6.96
2022-09-03T04:31:51.217Z,6.56
2022-09-03T04:32:52.450Z,7.36
2022-09-03T04:33:51.156Z,6.96
2022-09-03T04:34:51.137Z,6.56
2022-09-03T04:35:51.139Z,6.56
2022-09-03T04:36:52.995Z,6.96
2022-09-03T04:37:51.149Z,6.16
2022-09-03T04:38:51.113Z,6.76
2022-09-03T04:39:51.160Z,6.56
2022-09-03T04:40:51.053Z,6.56
2022-09-03T04:41:51.069Z,5.96
2022-09-03T04:42:51.019Z,6.56
2022-09-03T04:43:51.602Z,6.56
2022-09-03T04:44:51.328Z,7.16
2022-09-03T04:45:51.059Z,6.16
2022-09-03T04:46:51.031Z,6.96
2022-09-03T04:47:51.008Z,6.36
2022-09-03T04:48:51.136Z,6.56
2022-09-03T04:49:50.957Z,6.96
2022-09-03T04:50:50.987Z,6.96
2022-09-03T04:51:50.958Z,7.75
2022-09-03T04:52:51.009Z,7.16
2022-09-03T04:53:51.014Z,7.16
2022-09-03T04:54:50.938Z,5.17
2022-09-03T04:55:50.933Z,6.76
2022-09-03T04:56:51.052Z,6.96
2022-09-03T04:57:51.223Z,6.16
2022-09-03T04:58:51.122Z,6.56
2022-09-03T04:59:50.829Z,6.76
2022-09-03T05:00:50.861Z,6.76
2022-09-03T05:01:50.884Z,5.77
2022-09-03T05:02:50.791Z,7.16
2022-09-03T05:03:50.769Z,6.16
2022-09-03T05:04:50.778Z,7.16
2022-09-03T05:05:52.559Z,6.56
2022-09-03T05:06:50.775Z,6.36
2022-09-03T05:07:50.759Z,6.56
2022-09-03T05:08:50.712Z,6.36
2022-09-03T05:09:50.689Z,6.76
2022-09-03T05:10:50.725Z,6.56
2022-09-03T05:11:50.718Z,6.76
2022-09-03T05:12:50.777Z,5.77
2022-09-03T05:13:50.746Z,7.36
2022-09-03T05:14:50.686Z,6.56
2022-09-03T05:15:50.688Z,6.76
2022-09-03T05:16:52.797Z,6.96
2022-09-03T05:17:50.641Z,6.36
2022-09-03T05:18:51.386Z,7.16
2022-09-03T05:19:50.627Z,6.96
2022-09-03T05:20:50.650Z,7.75
2022-09-03T05:21:50.570Z,7.55
2022-09-03T05:22:50.955Z,7.75
2022-09-03T05:23:50.568Z,6.56
2022-09-03T05:24:50.563Z,6.16
2022-09-03T05:25:50.580Z,6.76
2022-09-03T05:26:50.567Z,6.56
2022-09-03T05:27:50.541Z,6.36
2022-09-03T05:28:50.565Z,6.56
2022-09-03T05:29:50.488Z,6.76
2022-09-03T05:30:50.478Z,7.95
2022-09-03T05:31:51.237Z,6.76
2022-09-03T05:32:50.542Z,7.95
2022-09-03T05:33:50.495Z,6.76
2022-09-03T05:34:50.467Z,6.76
2022-09-03T05:35:50.448Z,6.96
2022-09-03T05:36:50.417Z,6.56
2022-09-03T05:37:50.628Z,6.76
2022-09-03T05:38:50.441Z,4.97
2022-09-03T05:39:50.567Z,8.15
2022-09-03T05:40:50.355Z,7.75
2022-09-03T05:41:50.356Z,6.16
2022-09-03T05:42:50.396Z,7.75
2022-09-03T05:43:50.517Z,6.96
2022-09-03T05:44:50.367Z,6.96
2022-09-03T05:45:50.395Z,8.35
2022-09-03T05:46:50.320Z,8.15
2022-09-03T05:47:50.347Z,7.16
2022-09-03T05:48:50.289Z,7.36
2022-09-03T05:49:50.387Z,7.36
2022-09-03T05:50:50.259Z,7.75
2022-09-03T05:51:50.322Z,6.96
2022-09-03T05:52:50.287Z,7.16
2022-09-03T05:53:50.218Z,6.56
2022-09-03T05:54:50.211Z,7.16
2022-09-03T05:55:50.197Z,7.55
2022-09-03T05:56:50.216Z,5.96
2022-09-03T05:57:50.299Z,6.96
2022-09-03T05:58:50.263Z,7.36
2022-09-03T05:59:50.209Z,6.96
2022-09-03T06:00:50.222Z,7.75
2022-09-03T06:01:51.677Z,8.15
2022-09-03T06:02:50.287Z,7.36
2022-09-03T06:03:50.145Z,6.96
2022-09-03T06:04:50.262Z,7.55
2022-09-03T06:05:50.457Z,5.96
2022-09-03T06:06:50.121Z,6.56
2022-09-03T06:07:50.087Z,7.55
2022-09-03T06:08:50.069Z,2.58
2022-09-03T06:09:50.057Z,6.56
2022-09-03T06:10:50.405Z,7.36
2022-09-03T06:11:50.366Z,7.36
2022-09-03T06:12:50.522Z,7.75
2022-09-03T06:13:50.054Z,6.96
2022-09-03T06:14:50.000Z,6.36
2022-09-03T06:15:50.128Z,7.95
2022-09-03T06:16:50.188Z,6.36
2022-09-03T06:17:50.044Z,6.56
2022-09-03T06:18:49.981Z,7.16
2022-09-03T06:19:49.970Z,8.75
2022-09-03T06:20:49.952Z,7.36
2022-09-03T06:21:49.965Z,7.16
2022-09-03T06:22:49.990Z,6.76
2022-09-03T06:23:49.944Z,6.96
2022-09-03T06:24:50.091Z,7.16
2022-09-03T06:25:49.939Z,6.96
2022-09-03T06:26:49.898Z,7.16
2022-09-03T06:27:49.911Z,6.36
2022-09-03T06:28:49.855Z,7.55
2022-09-03T06:29:49.872Z,7.36
2022-09-03T06:30:49.943Z,6.16
2022-09-03T06:31:49.885Z,6.16
2022-09-03T06:32:49.850Z,6.56
2022-09-03T06:33:49.804Z,6.36
2022-09-03T06:34:49.795Z,6.76
2022-09-03T06:35:49.800Z,6.76
2022-09-03T06:36:49.791Z,6.76
2022-09-03T06:37:49.822Z,7.36
2022-09-03T06:38:49.787Z,6.96
2022-09-03T06:39:49.792Z,6.96
2022-09-03T06:40:49.783Z,6.96
2022-09-03T06:41:49.774Z,6.56
2022-09-03T06:42:49.762Z,6.76
2022-09-03T06:43:49.720Z,6.96
2022-09-03T06:44:49.700Z,7.16
2022-09-03T06:45:49.769Z,7.36
2022-09-03T06:46:49.659Z,7.16
2022-09-03T06:47:49.656Z,6.56
2022-09-03T06:48:49.660Z,6.96
2022-09-03T06:49:49.641Z,7.16
2022-09-03T06:50:49.754Z,6.36
2022-09-03T06:51:49.711Z,6.36
2022-09-03T06:52:49.589Z,6.96
2022-09-03T06:53:49.624Z,7.16
2022-09-03T06:54:49.614Z,7.16
2022-09-03T06:55:49.574Z,7.16
2022-09-03T06:56:49.581Z,7.36
2022-09-03T06:57:52.877Z,8.35
2022-09-03T06:58:49.595Z,7.75
2022-09-03T06:59:49.606Z,7.16
2022-09-03T07:00:49.648Z,6.96
2022-09-03T07:01:49.655Z,6.76
2022-09-03T07:02:49.492Z,6.76
2022-09-03T07:03:49.543Z,5.96
2022-09-03T07:04:49.629Z,6.96
2022-09-03T07:05:49.492Z,6.56
2022-09-03T07:06:49.447Z,6.96
2022-09-03T07:07:49.441Z,6.36
2022-09-03T07:08:49.444Z,6.76
2022-09-03T07:09:49.411Z,7.16
2022-09-03T07:10:49.433Z,6.96
2022-09-03T07:11:49.469Z,6.56
2022-09-03T07:12:49.409Z,6.36
2022-09-03T07:13:49.371Z,7.16
2022-09-03T07:14:51.204Z,7.16
2022-09-03T07:15:49.399Z,6.96
2022-09-03T07:16:49.372Z,7.95
2022-09-03T07:17:49.376Z,7.55
2022-09-03T07:18:49.653Z,7.75
2022-09-03T07:19:49.379Z,6.76
2022-09-03T07:20:49.271Z,7.16
2022-09-03T07:21:50.731Z,7.16
2022-09-03T07:22:49.257Z,6.96
2022-09-03T07:23:49.267Z,6.76
2022-09-03T07:24:49.411Z,7.16
2022-09-03T07:25:49.263Z,7.16
2022-09-03T07:26:49.254Z,6.76
2022-09-03T07:27:49.274Z,7.36
2022-09-03T07:28:49.202Z,5.96
2022-09-03T07:29:49.183Z,7.36
2022-09-03T07:30:49.211Z,6.36
2022-09-03T07:31:49.470Z,6.96
2022-09-03T07:32:49.391Z,6.76
2022-09-03T07:33:49.153Z,6.56
2022-09-03T07:34:49.104Z,6.56
2022-09-03T07:35:49.165Z,6.96
2022-09-03T07:36:49.140Z,6.56
2022-09-03T07:37:49.133Z,7.95
2022-09-03T07:38:49.156Z,6.36
2022-09-03T07:39:49.138Z,6.76
2022-09-03T07:40:49.044Z,7.16
2022-09-03T07:41:49.058Z,6.36
2022-09-03T07:42:53.262Z,6.16
2022-09-03T07:43:50.064Z,6.76
2022-09-03T07:44:49.105Z,7.36
2022-09-03T07:45:49.031Z,6.76
2022-09-03T07:46:49.147Z,7.36
2022-09-03T07:47:48.998Z,9.15
2022-09-03T07:48:49.054Z,10.14
2022-09-03T07:49:54.280Z,7.36
2022-09-03T07:50:49.771Z,7.16
2022-09-03T07:51:48.974Z,7.16
2022-09-03T07:52:48.995Z,7.16
2022-09-03T07:53:48.936Z,7.75
2022-09-03T07:54:48.984Z,6.96
2022-09-03T07:55:48.915Z,6.76
2022-09-03T07:56:48.890Z,6.56
2022-09-03T07:57:48.915Z,5.96
2022-09-03T07:58:48.903Z,7.75
2022-09-03T07:59:48.938Z,4.57
2022-09-03T08:00:48.943Z,7.55
2022-09-03T08:01:48.834Z,6.76
2022-09-03T08:02:48.885Z,6.16
2022-09-03T08:03:48.928Z,7.36
2022-09-03T08:04:48.875Z,6.56
2022-09-03T08:05:48.789Z,6.36
2022-09-03T08:06:48.788Z,7.16
2022-09-03T08:07:48.876Z,7.75
2022-09-03T08:08:48.760Z,5.77
2022-09-03T08:09:48.861Z,6.16
2022-09-03T08:10:48.792Z,6.56
2022-09-03T08:11:48.793Z,6.16
2022-09-03T08:12:48.856Z,7.36
2022-09-03T08:13:48.708Z,5.96
2022-09-03T08:14:48.839Z,6.56
2022-09-03T08:15:48.748Z,6.56
2022-09-03T08:16:48.715Z,6.36
2022-09-03T08:17:48.720Z,6.56
2022-09-03T08:18:49.623Z,6.96
2022-09-03T08:19:48.641Z,6.76
2022-09-03T08:20:48.614Z,6.56
2022-09-03T08:21:48.621Z,6.36
2022-09-03T08:22:48.759Z,5.77
2022-09-03T08:23:48.611Z,7.55
2022-09-03T08:24:48.636Z,7.36
2022-09-03T08:25:48.690Z,9.34
2022-09-03T08:26:52.014Z,7.75
2022-09-03T08:27:48.588Z,7.75
2022-09-03T08:28:48.566Z,7.55
2022-09-03T08:29:48.585Z,7.75
2022-09-03T08:30:48.614Z,7.75
2022-09-03T08:31:48.667Z,7.36
2022-09-03T08:32:48.501Z,5.96
2022-09-03T08:33:48.586Z,6.16
2022-09-03T08:34:48.551Z,6.36
2022-09-03T08:35:48.485Z,6.16
2022-09-03T08:36:48.451Z,7.95
2022-09-03T08:37:48.501Z,6.16
2022-09-03T08:38:48.452Z,6.36
2022-09-03T08:39:48.482Z,6.56
2022-09-03T08:40:48.442Z,7.95
2022-09-03T08:41:48.402Z,6.56
2022-09-03T08:42:48.463Z,6.56
2022-09-03T08:43:48.411Z,6.36
2022-09-03T08:44:48.420Z,6.96
2022-09-03T08:45:48.452Z,6.36
2022-09-03T08:46:48.424Z,6.56
2022-09-03T08:47:48.366Z,6.56
2022-09-03T08:48:48.334Z,6.56
2022-09-03T08:49:48.362Z,6.56
2022-09-03T08:50:48.326Z,6.76
2022-09-03T08:51:48.313Z,5.77
2022-09-03T08:52:48.281Z,6.36
2022-09-03T08:53:48.262Z,6.36
2022-09-03T08:54:48.334Z,6.56
2022-09-03T08:55:48.274Z,6.36
2022-09-03T08:56:48.303Z,6.96
2022-09-03T08:57:48.255Z,6.56
2022-09-03T08:58:48.224Z,6.36
2022-09-03T08:59:48.224Z,6.36
2022-09-03T09:00:48.257Z,6.56
2022-09-03T09:01:48.299Z,6.16
2022-09-03T09:02:48.319Z,6.56
2022-09-03T09:03:48.175Z,6.36
2022-09-03T09:04:48.295Z,6.36
2022-09-03T09:05:48.150Z,6.36
2022-09-03T09:06:48.137Z,5.77
2022-09-03T09:07:48.147Z,6.36
2022-09-03T09:08:48.098Z,6.56
2022-09-03T09:09:48.095Z,6.96
2022-09-03T09:10:48.105Z,6.76
2022-09-03T09:11:48.078Z,7.36
2022-09-03T09:12:48.063Z,7.16
2022-09-03T09:13:48.077Z,7.16
2022-09-03T09:14:48.047Z,5.96
2022-09-03T09:15:48.130Z,6.96
2022-09-03T09:16:48.047Z,6.76
2022-09-03T09:17:48.084Z,7.36
2022-09-03T09:18:48.014Z,7.55
2022-09-03T09:19:48.007Z,6.96
2022-09-03T09:20:47.958Z,6.16
2022-09-03T09:21:47.939Z,6.76
2022-09-03T09:22:48.010Z,7.16
2022-09-03T09:23:48.397Z,6.56
2022-09-03T09:24:48.073Z,6.56
2022-09-03T09:25:47.908Z,6.36
2022-09-03T09:26:47.918Z,6.96
2022-09-03T09:27:47.919Z,7.36
2022-09-03T09:28:47.879Z,6.96
2022-09-03T09:29:47.882Z,7.36
2022-09-03T09:30:47.973Z,8.15
2022-09-03T09:31:47.879Z,7.36
2022-09-03T09:32:47.913Z,6.96
2022-09-03T09:33:47.837Z,6.36
2022-09-03T09:34:52.042Z,6.16
2022-09-03T09:35:47.808Z,5.96
2022-09-03T09:36:47.822Z,6.76
2022-09-03T09:37:47.791Z,6.96
2022-09-03T09:38:47.822Z,7.16
2022-09-03T09:39:47.811Z,5.96
2022-09-03T09:40:47.834Z,6.76
2022-09-03T09:41:47.762Z,4.97
2022-09-03T09:42:47.772Z,5.37
2022-09-03T09:43:47.762Z,5.77
2022-09-03T09:44:47.792Z,5.17
2022-09-03T09:45:47.711Z,2.58
2022-09-03T09:46:50.269Z,5.57
2022-09-03T09:47:48.662Z,3.98
2022-09-03T09:48:47.647Z,6.76
2022-09-03T09:49:47.655Z,5.57
2022-09-03T09:50:47.793Z,3.98
2022-09-03T09:51:47.755Z,5.17
2022-09-03T09:52:48.254Z,4.77
2022-09-03T09:53:47.628Z,5.17
2022-09-03T09:54:47.644Z,5.17
2022-09-03T09:55:47.586Z,5.37
2022-09-03T09:56:47.545Z,5.37
2022-09-03T09:57:47.634Z,6.36
2022-09-03T09:58:47.564Z,5.77
2022-09-03T09:59:47.524Z,4.97
2022-09-03T10:00:47.545Z,4.97
2022-09-03T10:01:47.549Z,6.16
2022-09-03T10:02:47.507Z,4.77
2022-09-03T10:03:47.528Z,5.37
2022-09-03T10:04:47.546Z,5.37
2022-09-03T10:05:47.506Z,5.96
2022-09-03T10:06:47.488Z,5.37
2022-09-03T10:07:47.448Z,5.37
2022-09-03T10:08:47.458Z,5.57
2022-09-03T10:09:47.441Z,4.77
2022-09-03T10:10:47.494Z,5.17
2022-09-03T10:11:47.427Z,5.37
2022-09-03T10:12:47.407Z,5.96
2022-09-03T10:13:47.388Z,5.96
2022-09-03T10:14:47.388Z,4.37
2022-09-03T10:15:47.457Z,5.77
2022-09-03T10:16:47.328Z,3.18
2022-09-03T10:17:47.438Z,5.57
2022-09-03T10:18:47.348Z,4.77
2022-09-03T10:19:47.438Z,5.96
2022-09-03T10:20:47.342Z,6.16
2022-09-03T10:21:47.339Z,6.16
2022-09-03T10:22:57.153Z,4.97
2022-09-03T10:23:48.261Z,5.57
2022-09-03T10:24:47.259Z,6.56
2022-09-03T10:25:47.280Z,4.97
2022-09-03T10:26:47.242Z,5.37
2022-09-03T10:27:47.241Z,6.16
2022-09-03T10:28:47.239Z,5.37
2022-09-03T10:29:47.244Z,5.17
2022-09-03T10:30:47.346Z,4.57
2022-09-03T10:31:47.244Z,4.97
2022-09-03T10:32:48.565Z,5.17
2022-09-03T10:33:47.223Z,5.77
2022-09-03T10:34:47.211Z,6.36
2022-09-03T10:35:47.204Z,4.57
2022-09-03T10:36:47.191Z,4.97
2022-09-03T10:37:47.170Z,5.96
2022-09-03T10:38:47.121Z,5.77
2022-09-03T10:39:51.657Z,5.37
2022-09-03T10:40:48.211Z,4.77
2022-09-03T10:41:47.095Z,5.37
2022-09-03T10:42:47.121Z,5.57
2022-09-03T10:43:47.377Z,5.37
2022-09-03T10:44:47.065Z,5.17
2022-09-03T10:45:47.093Z,5.57
2022-09-03T10:46:47.138Z,4.77
2022-09-03T10:47:47.096Z,4.77
2022-09-03T10:48:47.015Z,5.17
2022-09-03T10:49:47.053Z,4.77
2022-09-03T10:50:47.031Z,4.97
2022-09-03T10:51:49.530Z,4.77
2022-09-03T10:52:46.981Z,4.17
2022-09-03T10:53:47.003Z,4.57
2022-09-03T10:54:46.973Z,5.57
2022-09-03T10:55:46.974Z,5.37
2022-09-03T10:56:46.964Z,4.97
2022-09-03T10:57:46.974Z,5.17
2022-09-03T10:58:46.915Z,4.17
2022-09-03T10:59:46.874Z,3.98
2022-09-03T11:00:46.862Z,5.96
2022-09-03T11:01:46.928Z,5.37
2022-09-03T11:02:46.896Z,5.37
2022-09-03T11:03:46.846Z,5.37
2022-09-03T11:04:46.868Z,4.77
2022-09-03T11:05:46.855Z,5.37
2022-09-03T11:06:46.823Z,5.17
2022-09-03T11:07:46.828Z,4.97
2022-09-03T11:08:46.796Z,4.77
2022-09-03T11:09:46.807Z,4.77
2022-09-03T11:10:46.805Z,4.37
2022-09-03T11:11:46.796Z,4.77
2022-09-03T11:12:46.756Z,4.57
2022-09-03T11:13:46.739Z,4.17
2022-09-03T11:14:46.727Z,2.98
2022-09-03T11:15:46.749Z,3.78
2022-09-03T11:16:46.748Z,2.19
2022-09-03T11:17:46.717Z,3.38
2022-09-03T11:18:46.707Z,3.58
2022-09-03T11:19:46.698Z,3.58
2022-09-03T11:20:46.680Z,3.78
2022-09-03T11:21:46.688Z,4.77
2022-09-03T11:22:46.648Z,3.78
2022-09-03T11:23:46.673Z,2.39
2022-09-03T11:24:46.680Z,2.98
2022-09-03T11:25:46.620Z,3.18
2022-09-03T11:26:46.620Z,3.38
2022-09-03T11:27:46.610Z,3.78
2022-09-03T11:28:46.593Z,2.78
2022-09-03T11:29:46.581Z,2.58
2022-09-03T11:30:46.657Z,1.79
2022-09-03T11:31:46.619Z,3.58
2022-09-03T11:32:46.607Z,4.17
2022-09-03T11:33:46.543Z,3.58
2022-09-03T11:34:46.527Z,3.98
2022-09-03T11:35:46.535Z,3.38
2022-09-03T11:36:48.097Z,3.58
2022-09-03T11:37:46.602Z,2.58
2022-09-03T11:38:46.490Z,2.58
2022-09-03T11:39:46.596Z,2.58
2022-09-03T11:40:46.472Z,3.98
2022-09-03T11:41:46.582Z,3.38
2022-09-03T11:42:46.450Z,3.78
2022-09-03T11:43:46.454Z,4.57
2022-09-03T11:44:51.715Z,3.78
2022-09-03T11:45:47.500Z,2.58
2022-09-03T11:46:46.400Z,3.38
2022-09-03T11:47:46.377Z,3.78
2022-09-03T11:48:46.373Z,3.58
2022-09-03T11:49:46.372Z,3.98
2022-09-03T11:50:46.354Z,3.38
2022-09-03T11:51:46.353Z,3.38
2022-09-03T11:52:46.326Z,3.38
2022-09-03T11:53:46.325Z,3.38
2022-09-03T11:54:46.312Z,3.38
2022-09-03T11:55:46.315Z,3.18
2022-09-03T11:56:46.325Z,3.58
2022-09-03T11:57:46.298Z,3.98
2022-09-03T11:58:46.249Z,3.38
2022-09-03T11:59:46.237Z,3.98
2022-09-03T12:00:46.218Z,3.58
2022-09-03T12:01:46.277Z,1.99
2022-09-03T12:02:46.357Z,4.17
2022-09-03T12:03:46.216Z,3.78
2022-09-03T12:04:46.310Z,2.78
2022-09-03T12:05:46.216Z,3.98
2022-09-03T12:06:46.226Z,3.38
2022-09-03T12:07:46.194Z,2.58
2022-09-03T12:08:46.170Z,3.38
2022-09-03T12:09:46.718Z,2.98
2022-09-03T12:10:46.167Z,3.38
2022-09-03T12:11:46.138Z,3.58
2022-09-03T12:12:46.130Z,2.98
2022-09-03T12:13:46.171Z,3.18
2022-09-03T12:14:46.119Z,3.18
2022-09-03T12:15:46.136Z,3.18
2022-09-03T12:16:46.090Z,3.38
2022-09-03T12:17:46.119Z,3.98
2022-09-03T12:18:46.090Z,1.99
2022-09-03T12:19:46.072Z,3.18
2022-09-03T12:20:46.050Z,3.58
2022-09-03T12:21:46.050Z,3.98
2022-09-03T12:22:46.131Z,3.38
2022-09-03T12:23:46.076Z,3.38
2022-09-03T12:24:46.048Z,2.98
2022-09-03T12:25:46.063Z,3.18
2022-09-03T12:26:46.009Z,3.78
2022-09-03T12:27:45.993Z,2.78
2022-09-03T12:28:46.008Z,3.18
2022-09-03T12:29:45.989Z,3.98
2022-09-03T12:30:46.148Z,1.79
2022-09-03T12:31:45.970Z,2.19
2022-09-03T12:32:46.003Z,2.19
2022-09-03T12:33:45.933Z,3.58
2022-09-03T12:34:46.232Z,4.17
2022-09-03T12:36:01.389Z,3.38
2022-09-03T12:36:46.923Z,2.98
2022-09-03T12:39:10.330Z,1.99
2022-09-03T12:41:46.939Z,2.98
2022-09-03T12:42:45.868Z,2.98
2022-09-03T12:43:50.162Z,2.78
2022-09-03T12:44:45.869Z,2.78
2022-09-03T12:46:47.025Z,1.39
2022-09-03T12:47:45.846Z,2.78
2022-09-03T12:48:46.062Z,3.18
2022-09-03T12:49:45.768Z,3.38
2022-09-03T12:50:49.375Z,4.37
2022-09-03T12:51:48.513Z,3.98
2022-09-03T12:52:45.786Z,3.58
2022-09-03T12:53:45.737Z,1.79
2022-09-03T12:54:45.861Z,3.58
2022-09-03T12:55:45.760Z,3.18
2022-09-03T12:56:45.708Z,3.18
2022-09-03T12:57:45.865Z,2.58
2022-09-03T12:58:45.646Z,3.78
2022-09-03T12:59:45.638Z,3.18
2022-09-03T13:00:45.640Z,2.19
2022-09-03T13:01:45.663Z,4.37
2022-09-03T13:02:45.687Z,2.78
2022-09-03T13:03:45.611Z,3.58
2022-09-03T13:04:45.630Z,2.98
2022-09-03T13:05:45.589Z,4.17
2022-09-03T13:06:45.567Z,3.58
2022-09-03T13:07:45.630Z,2.98
2022-09-03T13:08:45.549Z,2.78
2022-09-03T13:09:45.550Z,3.98
2022-09-03T13:10:45.572Z,2.58
2022-09-03T13:11:45.561Z,4.17
2022-09-03T13:12:47.967Z,2.78
2022-09-03T13:13:46.511Z,3.78
2022-09-03T13:14:45.521Z,3.18
2022-09-03T13:15:45.503Z,3.98
2022-09-03T13:16:45.523Z,2.98
2022-09-03T13:17:45.512Z,3.18
2022-09-03T13:18:45.471Z,2.98
2022-09-03T13:19:45.427Z,3.38
2022-09-03T13:20:45.417Z,2.98
2022-09-03T13:21:45.402Z,3.38
2022-09-03T13:22:45.403Z,2.58